Time;durP1;ratioP1;P1;durP2;ratioP2;P2;SDS_P1;SDS_P2;PMS_P1;PMS_P2;Temp;Humidity;BMP_temperature;BMP_pressure;BME280_temperature;BME280_humidity;BME280_pressure;Samples;Min_cycle;Max_cycle;Signal;HPM_P1;HPM_P2
2023/07/16 00:02:24;;;;;;;;;;;;;;;21.34;100.00;95356.81;10476746;28;1767;-76
2023/07/16 00:07:27;;;;;;;;;;;;;;;20.91;100.00;95365.81;10467499;28;1891;-76
2023/07/16 00:12:30;;;;;;;;;;;;;;;20.65;100.00;95385.38;10453474;28;1919;-77
2023/07/16 00:17:33;;;;;;;;;;;;;;;20.58;100.00;95385.19;10466522;28;2056;-76
2023/07/16 00:22:43;;;;;;;;;;;;;;;20.57;100.00;95384.38;10465551;28;1939;-77
2023/07/16 00:27:46;;;;;;;;;;;;;;;20.48;100.00;95387.25;10468163;28;2239;-77
2023/07/16 00:32:49;;;;;;;;;;;;;;;20.58;100.00;95390.66;10455290;28;2173;-77
2023/07/16 00:37:52;;;;;;;;;;;;;;;20.57;100.00;95411.69;10464137;28;1998;-77
2023/07/16 00:42:55;;;;;;;;;;;;;;;20.52;100.00;95437.31;10450291;28;1965;-76
2023/07/16 00:47:59;;;;;;;;;;;;;;;20.61;100.00;95452.75;10463860;28;2626;-76
2023/07/16 00:53:04;;;;;;;;;;;;;;;20.75;100.00;95505.88;10455599;28;2262;-77
2023/07/16 00:58:07;;;;;;;;;;;;;;;20.85;100.00;95552.97;10475397;28;2169;-77
2023/07/16 01:03:11;;;;;;;;;;;;;;;20.94;100.00;95575.50;10474521;28;2289;-76
2023/07/16 01:08:14;;;;;;;;;;;;;;;20.87;100.00;95586.22;10457329;28;2137;-77
2023/07/16 01:13:20;;;;;;;;;;;;;;;20.73;100.00;95611.94;10462594;28;2022;-77
2023/07/16 01:18:23;;;;;;;;;;;;;;;20.56;100.00;95619.56;10466428;28;1923;-77
2023/07/16 01:23:26;;;;;;;;;;;;;;;20.44;100.00;95631.25;10463785;28;1990;-76
2023/07/16 01:28:30;;;;;;;;;;;;;;;20.31;100.00;95638.63;10468559;28;2160;-76
2023/07/16 01:33:34;;;;;;;;;;;;;;;20.31;100.00;95637.84;10461604;28;2272;-76
2023/07/16 01:38:37;;;;;;;;;;;;;;;20.27;100.00;95650.56;10466297;28;1993;-76
2023/07/16 01:43:41;;;;;;;;;;;;;;;20.17;100.00;95659.97;10460615;28;4955;-75
2023/07/16 01:48:44;;;;;;;;;;;;;;;20.18;100.00;95667.81;10470324;28;1996;-75
2023/07/16 01:53:47;;;;;;;;;;;;;;;20.31;100.00;95660.47;10464346;28;2259;-76
2023/07/16 01:58:49;;;;;;;;;;;;;;;20.37;100.00;95647.41;10466194;28;1973;-77
2023/07/16 02:03:53;;;;;;;;;;;;;;;20.34;100.00;95675.34;10465663;28;2340;-76
2023/07/16 02:08:58;;;;;;;;;;;;;;;20.44;100.00;95674.94;10473314;28;2055;-76
2023/07/16 02:14:01;;;;;;;;;;;;;;;20.51;100.00;95675.19;10468192;28;1984;-77
2023/07/16 02:19:04;;;;;;;;;;;;;;;20.65;100.00;95674.88;10462975;28;1914;-78
2023/07/16 02:24:07;;;;;;;;;;;;;;;20.67;100.00;95678.03;10458764;28;2000;-77
2023/07/16 02:29:10;;;;;;;;;;;;;;;20.85;100.00;95684.88;10451523;28;1947;-76
2023/07/16 02:34:13;;;;;;;;;;;;;;;20.85;100.00;95657.56;10467780;28;1943;-76
2023/07/16 02:39:18;;;;;;;;;;;;;;;20.87;100.00;95677.16;10454913;28;2436;-77
2023/07/16 02:44:21;;;;;;;;;;;;;;;20.85;100.00;95693.09;10467722;28;5135;-77
2023/07/16 02:49:24;;;;;;;;;;;;;;;20.86;100.00;95693.88;10462404;28;1930;-77
2023/07/16 02:54:28;;;;;;;;;;;;;;;20.82;100.00;95707.44;10460182;28;1991;-77
2023/07/16 02:59:31;;;;;;;;;;;;;;;20.90;100.00;95703.78;10460712;28;2017;-77
2023/07/16 03:04:35;;;;;;;;;;;;;;;20.89;100.00;95704.94;10457351;28;2364;-78
2023/07/16 03:09:39;;;;;;;;;;;;;;;20.98;100.00;95711.06;10467468;28;1948;-78
2023/07/16 03:14:42;;;;;;;;;;;;;;;20.92;100.00;95709.69;10461686;28;2047;-77
2023/07/16 03:19:46;;;;;;;;;;;;;;;20.85;100.00;95725.88;10466221;28;1993;-76
2023/07/16 03:24:50;;;;;;;;;;;;;;;20.88;100.00;95711.53;10465396;28;1974;-76
2023/07/16 03:29:53;;;;;;;;;;;;;;;20.74;100.00;95716.50;10469451;28;2259;-77
2023/07/16 03:34:56;;;;;;;;;;;;;;;20.50;100.00;95734.47;10468183;28;2032;-76
2023/07/16 03:39:58;;;;;;;;;;;;;;;20.42;100.00;95743.53;10468576;28;5141;-76
2023/07/16 03:45:01;;;;;;;;;;;;;;;20.22;100.00;95749.81;10472627;28;2049;-76
2023/07/16 03:50:04;;;;;;;;;;;;;;;20.02;100.00;95764.28;10466208;28;1980;-76
2023/07/16 03:55:09;;;;;;;;;;;;;;;20.09;100.00;95754.44;10462942;28;1942;-76
2023/07/16 04:00:12;;;;;;;;;;;;;;;20.17;100.00;95752.78;10452366;28;1912;-77
2023/07/16 04:05:19;;;;;;;;;;;;;;;20.25;100.00;95762.81;10459734;28;2279;-76
2023/07/16 04:10:25;;;;;;;;;;;;;;;20.30;100.00;95753.63;10467240;28;2042;-77
2023/07/16 04:15:29;;;;;;;;;;;;;;;20.50;100.00;95755.53;10468767;28;1980;-76
2023/07/16 04:20:33;;;;;;;;;;;;;;;20.17;100.00;95796.44;10469624;28;1957;-77
2023/07/16 04:25:37;;;;;;;;;;;;;;;19.60;100.00;95824.28;10465659;28;2276;-80
2023/07/16 04:30:39;;;;;;;;;;;;;;;19.02;100.00;95833.97;10460745;28;2128;-77
2023/07/16 04:35:43;;;;;;;;;;;;;;;19.05;100.00;95838.78;10469915;28;2129;-77
2023/07/16 04:40:46;;;;;;;;;;;;;;;19.08;100.00;95843.56;10473573;28;2069;-77
2023/07/16 04:45:49;;;;;;;;;;;;;;;19.11;100.00;95856.53;10461451;28;1986;-77
2023/07/16 04:50:52;;;;;;;;;;;;;;;19.10;100.00;95861.19;10468516;28;1981;-76
2023/07/16 04:55:56;;;;;;;;;;;;;;;19.18;100.00;95865.00;10463757;28;1970;-76
2023/07/16 05:01:00;;;;;;;;;;;;;;;19.25;100.00;95853.59;10464804;28;2220;-75
2023/07/16 05:06:03;;;;;;;;;;;;;;;19.30;100.00;95851.50;10469336;28;2325;-77
2023/07/16 05:11:06;;;;;;;;;;;;;;;19.46;100.00;95846.28;10475111;28;2338;-77
2023/07/16 05:16:10;;;;;;;;;;;;;;;19.71;100.00;95850.03;10467862;28;1910;-76
2023/07/16 05:21:13;;;;;;;;;;;;;;;20.03;100.00;95853.19;10472491;28;1961;-76
2023/07/16 05:26:16;;;;;;;;;;;;;;;20.09;100.00;95860.84;10468504;28;1985;-76
2023/07/16 05:31:19;;;;;;;;;;;;;;;20.20;100.00;95853.06;10463805;28;2295;-76
2023/07/16 05:36:22;;;;;;;;;;;;;;;20.47;100.00;95855.28;10466363;28;2082;-76
2023/07/16 05:41:25;;;;;;;;;;;;;;;20.80;100.00;95857.22;10464195;28;5108;-76
2023/07/16 05:46:28;;;;;;;;;;;;;;;21.13;100.00;95856.41;10451535;28;1962;-74
2023/07/16 05:51:31;;;;;;;;;;;;;;;20.90;100.00;95861.47;10459947;28;1971;-75
2023/07/16 05:56:33;;;;;;;;;;;;;;;20.90;100.00;95877.88;10457202;28;2100;-75
2023/07/16 06:01:36;;;;;;;;;;;;;;;21.38;100.00;95888.16;10467930;28;1913;-74
2023/07/16 06:06:40;;;;;;;;;;;;;;;21.70;100.00;95880.19;10453560;28;2349;-75
2023/07/16 06:11:44;;;;;;;;;;;;;;;22.23;100.00;95870.13;10456860;28;1997;-75
2023/07/16 06:16:47;;;;;;;;;;;;;;;22.24;100.00;95872.50;10460589;28;1987;-75
2023/07/16 06:21:50;;;;;;;;;;;;;;;22.54;100.00;95897.66;10460691;28;2144;-74
2023/07/16 06:26:53;;;;;;;;;;;;;;;22.22;100.00;95888.47;10463108;28;2366;-74
2023/07/16 06:31:57;;;;;;;;;;;;;;;22.32;100.00;95898.16;10458705;28;1973;-75
2023/07/16 06:37:00;;;;;;;;;;;;;;;22.38;100.00;95904.97;10463689;28;1993;-74
2023/07/16 06:42:02;;;;;;;;;;;;;;;22.20;100.00;95900.91;10460195;28;5085;-74
2023/07/16 06:47:08;;;;;;;;;;;;;;;22.19;100.00;95899.31;10455995;28;1996;-73
2023/07/16 06:52:10;;;;;;;;;;;;;;;22.77;100.00;95883.38;10445994;28;2000;-75
2023/07/16 06:57:14;;;;;;;;;;;;;;;22.97;100.00;95873.38;10469597;28;1985;-75
2023/07/16 07:02:16;;;;;;;;;;;;;;;23.42;100.00;95894.97;10463306;28;2413;-75
2023/07/16 07:07:19;;;;;;;;;;;;;;;24.15;100.00;95868.88;10466594;28;1984;-75
2023/07/16 07:12:24;;;;;;;;;;;;;;;23.10;100.00;95888.66;10457922;28;2046;-75
2023/07/16 07:17:27;;;;;;;;;;;;;;;23.04;100.00;95882.63;10467711;28;2302;-76
2023/07/16 07:22:30;;;;;;;;;;;;;;;22.90;100.00;95882.22;10456235;28;2272;-75
2023/07/16 07:27:33;;;;;;;;;;;;;;;22.85;100.00;95879.72;10461491;28;1973;-76
2023/07/16 07:32:36;;;;;;;;;;;;;;;22.62;100.00;95885.75;10439933;28;1990;-77
2023/07/16 07:37:39;;;;;;;;;;;;;;;22.29;100.00;95883.22;10446626;28;2025;-73
2023/07/16 07:42:42;;;;;;;;;;;;;;;22.59;100.00;95880.16;10448184;28;5047;-70
2023/07/16 07:47:45;;;;;;;;;;;;;;;22.92;100.00;95868.97;10464781;28;1963;-73
2023/07/16 07:52:51;;;;;;;;;;;;;;;23.40;100.00;95872.56;10455735;28;2042;-75
2023/07/16 07:57:54;;;;;;;;;;;;;;;24.12;100.00;95851.19;10454621;28;2168;-73
2023/07/16 08:02:57;;;;;;;;;;;;;;;24.38;100.00;95858.84;10464010;28;2381;-71
2023/07/16 08:07:59;;;;;;;;;;;;;;;23.40;100.00;95853.38;10462940;28;2010;-71
2023/07/16 08:13:02;;;;;;;;;;;;;;;23.66;100.00;95855.59;10464421;28;2014;-73
2023/07/16 08:18:05;;;;;;;;;;;;;;;24.12;100.00;95850.41;10460871;28;2235;-73
2023/07/16 08:23:07;;;;;;;;;;;;;;;25.01;100.00;95835.72;10471567;28;2064;-73
2023/07/16 08:28:11;;;;;;;;;;;;;;;24.28;100.00;95834.66;10465415;28;1969;-74
2023/07/16 08:33:14;;;;;;;;;;;;;;;23.99;100.00;95825.81;10460442;28;2244;-73
2023/07/16 08:38:17;;;;;;;;;;;;;;;21.82;100.00;95847.31;10465621;28;1942;-74
2023/07/16 08:43:20;;;;;;;;;;;;;;;23.03;100.00;95834.44;10460745;28;5093;-73
2023/07/16 08:48:22;;;;;;;;;;;;;;;24.15;100.00;95822.19;10462180;28;1911;-74
2023/07/16 08:53:25;;;;;;;;;;;;;;;24.16;100.00;95815.53;10463676;28;1898;-74
2023/07/16 08:58:28;;;;;;;;;;;;;;;24.77;100.00;95804.66;10465295;28;1847;-74
2023/07/16 09:03:31;;;;;;;;;;;;;;;25.83;100.00;95810.44;10466312;28;1805;-74
2023/07/16 09:08:35;;;;;;;;;;;;;;;26.57;100.00;95809.06;10469557;28;1887;-73
2023/07/16 09:13:37;;;;;;;;;;;;;;;25.82;100.00;95805.28;10460176;28;2296;-76
2023/07/16 09:18:40;;;;;;;;;;;;;;;26.64;100.00;95793.38;10463806;28;1891;-78
2023/07/16 09:23:43;;;;;;;;;;;;;;;27.21;100.00;95801.47;10465441;28;1895;-75
2023/07/16 09:28:46;;;;;;;;;;;;;;;26.54;100.00;95793.28;10474880;28;1886;-74
2023/07/16 09:33:49;;;;;;;;;;;;;;;27.25;100.00;95794.03;10471740;28;1973;-74
2023/07/16 09:38:52;;;;;;;;;;;;;;;27.65;100.00;95790.41;10473563;28;1832;-73
2023/07/16 09:43:55;;;;;;;;;;;;;;;28.40;97.51;95777.06;10467633;28;5078;-73
2023/07/16 09:48:57;;;;;;;;;;;;;;;27.44;100.00;95776.44;10473757;28;2080;-73
2023/07/16 09:54:01;;;;;;;;;;;;;;;26.72;100.00;95768.63;10468126;28;1965;-70
2023/07/16 09:59:04;;;;;;;;;;;;;;;26.64;100.00;95771.31;10469339;28;1951;-71
2023/07/16 10:04:07;;;;;;;;;;;;;;;26.56;100.00;95775.19;10461280;28;2310;-75
2023/07/16 10:09:09;;;;;;;;;;;;;;;26.44;100.00;95766.38;10461257;28;2282;-70
2023/07/16 10:14:12;;;;;;;;;;;;;;;26.94;100.00;95762.97;10458849;28;1910;-70
2023/07/16 10:19:15;;;;;;;;;;;;;;;27.36;100.00;95766.53;10465956;28;1901;-72
2023/07/16 10:24:18;;;;;;;;;;;;;;;26.84;100.00;95769.16;10466147;28;1855;-74
2023/07/16 10:29:21;;;;;;;;;;;;;;;27.17;100.00;95762.81;10462071;28;2136;-71
2023/07/16 10:34:24;;;;;;;;;;;;;;;27.14;99.06;95760.03;10462413;28;1906;-71
2023/07/16 10:39:28;;;;;;;;;;;;;;;26.50;100.00;95757.38;10461166;28;1958;-70
2023/07/16 10:44:30;;;;;;;;;;;;;;;25.93;100.00;95762.16;10459743;28;5121;-73
2023/07/16 10:49:33;;;;;;;;;;;;;;;25.72;100.00;95751.63;10464289;28;1828;-74
2023/07/16 10:54:36;;;;;;;;;;;;;;;25.38;100.00;95761.72;10459329;28;1981;-73
2023/07/16 10:59:41;;;;;;;;;;;;;;;26.64;100.00;95743.75;10472784;28;1836;-73
2023/07/16 11:04:43;;;;;;;;;;;;;;;27.59;99.30;95744.19;10468728;28;2076;-74
2023/07/16 11:09:46;;;;;;;;;;;;;;;28.27;93.53;95739.88;10459982;28;1924;-73
2023/07/16 11:14:49;;;;;;;;;;;;;;;28.08;93.83;95746.50;10466073;28;1902;-74
2023/07/16 11:19:53;;;;;;;;;;;;;;;28.45;91.77;95745.50;10473407;28;1875;-73
2023/07/16 11:24:55;;;;;;;;;;;;;;;28.09;94.01;95733.47;10462358;28;1934;-74
2023/07/16 11:30:01;;;;;;;;;;;;;;;27.89;93.15;95725.47;10461347;28;1875;-74
2023/07/16 11:35:03;;;;;;;;;;;;;;;27.40;96.11;95726.72;10462415;28;2065;-76
2023/07/16 11:40:06;;;;;;;;;;;;;;;28.17;95.66;95722.06;10462329;28;5054;-75
2023/07/16 11:45:10;;;;;;;;;;;;;;;27.89;99.24;95719.16;10473266;28;1891;-74
2023/07/16 11:50:13;;;;;;;;;;;;;;;27.83;99.04;95715.19;10472973;28;1894;-74
2023/07/16 11:55:15;;;;;;;;;;;;;;;28.08;96.04;95712.56;10465311;28;1922;-73
2023/07/16 12:00:19;;;;;;;;;;;;;;;27.06;100.00;95700.44;10469857;28;1895;-73
2023/07/16 12:05:24;;;;;;;;;;;;;;;26.70;100.00;95702.84;10471938;28;2243;-73
2023/07/16 12:10:43;;;;;;;;;;;;;;;26.67;100.00;95698.91;10481311;28;2160;-71
2023/07/16 12:15:45;;;;;;;;;;;;;;;27.44;99.30;95708.22;10463759;28;1982;-73
2023/07/16 12:20:50;;;;;;;;;;;;;;;26.64;100.00;95698.84;10469760;28;1935;-72
2023/07/16 12:25:53;;;;;;;;;;;;;;;27.19;100.00;95688.72;10465016;28;1880;-73
2023/07/16 12:30:56;;;;;;;;;;;;;;;28.51;99.65;95683.13;10463701;28;1903;-71
2023/07/16 12:35:59;;;;;;;;;;;;;;;26.81;100.00;95687.19;10458117;28;2069;-73
2023/07/16 12:41:04;;;;;;;;;;;;;;;27.55;100.00;95691.75;10457512;28;5053;-73
2023/07/16 12:46:06;;;;;;;;;;;;;;;27.12;100.00;95693.41;10452387;28;1918;-72
2023/07/16 12:51:09;;;;;;;;;;;;;;;26.27;100.00;95699.59;10468413;28;2143;-72
2023/07/16 12:56:11;;;;;;;;;;;;;;;26.31;100.00;95700.44;10469581;28;2014;-72
2023/07/16 13:01:14;;;;;;;;;;;;;;;26.96;100.00;95693.63;10468286;28;2298;-73
2023/07/16 13:06:17;;;;;;;;;;;;;;;27.68;100.00;95694.97;10472721;28;1903;-72
2023/07/16 13:11:20;;;;;;;;;;;;;;;27.85;100.00;95686.00;10469596;28;1887;-72
2023/07/16 13:16:23;;;;;;;;;;;;;;;27.09;100.00;95683.91;10447900;28;2034;-71
2023/07/16 13:21:26;;;;;;;;;;;;;;;25.67;100.00;95694.13;10464131;28;1979;-72
2023/07/16 13:26:29;;;;;;;;;;;;;;;25.90;100.00;95693.28;10467103;28;1891;-72
2023/07/16 13:31:31;;;;;;;;;;;;;;;27.41;100.00;95691.63;10467989;28;2409;-72
2023/07/16 13:36:35;;;;;;;;;;;;;;;27.23;100.00;95687.94;10453359;28;1974;-72
2023/07/16 13:41:37;;;;;;;;;;;;;;;28.12;100.00;95669.94;10464704;28;5089;-74
2023/07/16 13:46:41;;;;;;;;;;;;;;;27.41;100.00;95697.16;10466387;28;1903;-74
2023/07/16 13:51:43;;;;;;;;;;;;;;;25.80;100.00;95700.22;10474592;28;1879;-73
2023/07/16 13:56:46;;;;;;;;;;;;;;;26.75;100.00;95682.41;10470590;28;2346;-72
2023/07/16 14:01:49;;;;;;;;;;;;;;;27.46;100.00;95678.25;10476334;28;1879;-72
2023/07/16 14:06:52;;;;;;;;;;;;;;;27.52;100.00;95683.41;10463488;28;2100;-72
2023/07/16 14:11:57;;;;;;;;;;;;;;;27.77;100.00;95680.84;10467618;28;1981;-73
2023/07/16 14:17:00;;;;;;;;;;;;;;;27.48;100.00;95677.88;10469366;28;1914;-74
2023/07/16 14:22:02;;;;;;;;;;;;;;;27.48;100.00;95675.09;10465187;28;1827;-73
2023/07/16 14:27:06;;;;;;;;;;;;;;;26.83;100.00;95679.34;10465697;28;2088;-74
2023/07/16 14:32:08;;;;;;;;;;;;;;;26.22;100.00;95688.94;10460600;28;1894;-73
2023/07/16 14:37:12;;;;;;;;;;;;;;;26.06;100.00;95694.66;10467442;28;1942;-75
2023/07/16 14:42:15;;;;;;;;;;;;;;;26.35;100.00;95687.53;10460987;28;5161;-72
2023/07/16 14:47:18;;;;;;;;;;;;;;;26.30;100.00;95685.09;10463351;28;1929;-74
2023/07/16 14:52:21;;;;;;;;;;;;;;;25.63;100.00;95687.78;10457464;28;2310;-75
2023/07/16 14:57:24;;;;;;;;;;;;;;;25.57;100.00;95697.50;10476346;28;1910;-71
2023/07/16 15:02:28;;;;;;;;;;;;;;;25.20;100.00;95691.88;10481102;28;1649;-72
2023/07/16 15:07:32;;;;;;;;;;;;;;;25.61;100.00;95695.63;10470237;28;1522;-72
2023/07/16 15:12:35;;;;;;;;;;;;;;;25.74;100.00;95694.25;10467908;28;1466;-72
2023/07/16 15:17:39;;;;;;;;;;;;;;;25.52;100.00;95684.09;10474294;28;2035;-72
2023/07/16 15:22:42;;;;;;;;;;;;;;;25.73;100.00;95684.41;10476894;28;1445;-70
2023/07/16 15:27:45;;;;;;;;;;;;;;;25.58;100.00;95679.88;10474604;28;1445;-72
2023/07/16 15:32:48;;;;;;;;;;;;;;;25.61;100.00;95688.16;10472446;28;1498;-72
2023/07/16 15:37:51;;;;;;;;;;;;;;;26.02;100.00;95676.50;10478139;28;1984;-72
2023/07/16 15:42:54;;;;;;;;;;;;;;;26.09;100.00;95690.38;10477637;28;5003;-72
2023/07/16 15:47:58;;;;;;;;;;;;;;;26.18;100.00;95692.81;10482445;28;2227;-73
2023/07/16 15:53:01;;;;;;;;;;;;;;;26.75;100.00;95680.44;10475400;28;1512;-72
2023/07/16 15:58:04;;;;;;;;;;;;;;;26.69;100.00;95679.22;10457314;28;1914;-76
2023/07/16 16:03:07;;;;;;;;;;;;;;;27.25;100.00;95680.88;10479184;28;1883;-72
2023/07/16 16:08:10;;;;;;;;;;;;;;;26.50;100.00;95666.44;10484182;28;2025;-70
2023/07/16 16:13:14;;;;;;;;;;;;;;;26.75;100.00;95677.69;10469552;28;2175;-73
2023/07/16 16:18:17;;;;;;;;;;;;;;;26.92;100.00;95679.81;10470369;28;1997;-73
2023/07/16 16:23:21;;;;;;;;;;;;;;;26.27;100.00;95687.78;10472814;28;1926;-74
2023/07/16 16:28:24;;;;;;;;;;;;;;;26.04;100.00;95693.44;10474132;28;1993;-73
2023/07/16 16:33:27;;;;;;;;;;;;;;;25.86;100.00;95688.50;10466825;28;1965;-72
2023/07/16 16:38:29;;;;;;;;;;;;;;;26.23;100.00;95684.22;10441596;28;1936;-72
2023/07/16 16:43:34;;;;;;;;;;;;;;;26.50;100.00;95676.66;10465544;28;5127;-73
2023/07/16 16:48:38;;;;;;;;;;;;;;;26.70;100.00;95669.75;10464867;28;1846;-71
2023/07/16 16:53:41;;;;;;;;;;;;;;;26.56;100.00;95669.63;10472826;28;1992;-76
2023/07/16 16:58:44;;;;;;;;;;;;;;;26.44;100.00;95680.94;10476301;28;1836;-77
2023/07/16 17:03:47;;;;;;;;;;;;;;;26.39;100.00;95666.28;10472770;28;1895;-77
2023/07/16 17:08:50;;;;;;;;;;;;;;;26.29;100.00;95666.97;10477535;28;1863;-76
2023/07/16 17:13:55;;;;;;;;;;;;;;;26.06;100.00;95677.34;10472708;28;2170;-77
2023/07/16 17:18:58;;;;;;;;;;;;;;;25.92;100.00;95671.66;10454288;28;2316;-77
2023/07/16 17:24:01;;;;;;;;;;;;;;;25.94;100.00;95672.88;10470181;28;1890;-77
2023/07/16 17:29:05;;;;;;;;;;;;;;;25.67;100.00;95666.59;10475629;28;2005;-79
2023/07/16 17:34:08;;;;;;;;;;;;;;;25.82;100.00;95676.66;10455233;28;1914;-76
2023/07/16 17:39:13;;;;;;;;;;;;;;;25.80;100.00;95673.47;10473668;28;2077;-75
2023/07/16 17:44:16;;;;;;;;;;;;;;;25.85;100.00;95670.41;10473087;28;5098;-75
2023/07/16 17:49:19;;;;;;;;;;;;;;;25.22;100.00;95682.09;10469810;28;1945;-72
2023/07/16 17:54:23;;;;;;;;;;;;;;;24.97;100.00;95700.13;10458190;28;1993;-70
2023/07/16 17:59:25;;;;;;;;;;;;;;;24.99;100.00;95701.34;10446730;28;1958;-73
2023/07/16 18:04:28;;;;;;;;;;;;;;;24.85;100.00;95700.31;10457276;28;1987;-72
2023/07/16 18:09:32;;;;;;;;;;;;;;;24.50;100.00;95706.78;10454285;28;1893;-73
2023/07/16 18:14:35;;;;;;;;;;;;;;;24.10;100.00;95696.94;10463256;28;2364;-70
2023/07/16 18:19:38;;;;;;;;;;;;;;;23.77;100.00;95691.19;10467134;28;1961;-76
2023/07/16 18:24:41;;;;;;;;;;;;;;;23.85;100.00;95692.91;10468344;28;1898;-73
2023/07/16 18:29:44;;;;;;;;;;;;;;;23.78;100.00;95699.03;10446350;28;1858;-72
2023/07/16 18:34:47;;;;;;;;;;;;;;;23.88;100.00;95697.69;10464403;28;2389;-69
2023/07/16 18:39:55;;;;;;;;;;;;;;;23.66;100.00;95702.72;10472330;28;5244;-70
2023/07/16 18:44:59;;;;;;;;;;;;;;;23.41;100.00;95710.38;10470114;28;1863;-70
2023/07/16 18:50:03;;;;;;;;;;;;;;;23.35;100.00;95708.25;10463111;28;1916;-70
2023/07/16 18:55:06;;;;;;;;;;;;;;;23.18;100.00;95715.72;10470922;28;1929;-74
2023/07/16 19:00:09;;;;;;;;;;;;;;;23.10;100.00;95724.94;10468702;28;1887;-71
2023/07/16 19:05:13;;;;;;;;;;;;;;;23.02;100.00;95723.16;10461591;28;1899;-71
2023/07/16 19:10:17;;;;;;;;;;;;;;;22.91;100.00;95736.63;10470999;28;1915;-72
2023/07/16 19:15:20;;;;;;;;;;;;;;;22.78;100.00;95737.03;10457608;28;2007;-73
2023/07/16 19:20:22;;;;;;;;;;;;;;;22.74;100.00;95739.66;10465057;28;1891;-71
2023/07/16 19:25:25;;;;;;;;;;;;;;;22.69;100.00;95736.38;10465132;28;1980;-71
2023/07/16 19:30:28;;;;;;;;;;;;;;;22.60;100.00;95742.84;10457499;28;1943;-69
2023/07/16 19:35:32;;;;;;;;;;;;;;;22.62;100.00;95737.00;10463649;28;1918;-69
2023/07/16 19:40:35;;;;;;;;;;;;;;;22.56;100.00;95739.19;10462399;28;5090;-69
2023/07/16 19:45:38;;;;;;;;;;;;;;;22.46;100.00;95747.13;10461638;28;1895;-71
2023/07/16 19:50:46;;;;;;;;;;;;;;;22.42;100.00;95760.72;10459048;28;2075;-70
2023/07/16 19:55:50;;;;;;;;;;;;;;;22.33;100.00;95757.34;10459269;28;2001;-69
2023/07/16 20:01:04;;;;;;;;;;;;;;;22.33;100.00;95768.28;10471492;28;1895;-71
2023/07/16 20:12:38;;;;;;;;;;;;;;;22.40;100.00;95801.38;10464819;28;1980;-73
2023/07/16 20:23:45;;;;;;;;;;;;;;;22.23;100.00;95794.25;10468085;28;1962;-72
2023/07/16 20:29:03;;;;;;;;;;;;;;;22.07;100.00;95799.59;10476095;28;2448;-71
2023/07/16 20:34:16;;;;;;;;;;;;;;;21.95;100.00;95807.88;10448419;28;2038;-71
2023/07/16 20:39:32;;;;;;;;;;;;;;;21.81;100.00;95796.47;10469669;28;2234;-72
2023/07/16 20:44:34;;;;;;;;;;;;;;;21.90;100.00;95804.56;10467737;28;5018;-71
2023/07/16 20:49:40;;;;;;;;;;;;;;;21.93;100.00;95790.97;10457111;28;2127;-71
2023/07/16 20:54:43;;;;;;;;;;;;;;;22.00;100.00;95795.88;10462138;28;1991;-70
2023/07/16 20:59:45;;;;;;;;;;;;;;;22.18;100.00;95796.44;10461776;28;2113;-71
2023/07/16 21:04:51;;;;;;;;;;;;;;;22.23;100.00;95790.72;10471279;28;1848;-70
2023/07/16 21:10:02;;;;;;;;;;;;;;;22.09;100.00;95800.13;10469994;28;1890;-69
2023/07/16 21:15:05;;;;;;;;;;;;;;;22.14;100.00;95793.59;10474786;28;1975;-69
2023/07/16 21:20:09;;;;;;;;;;;;;;;22.16;100.00;95796.78;10470494;28;1940;-71
2023/07/16 21:25:12;;;;;;;;;;;;;;;22.10;100.00;95787.22;10449325;28;2498;-70
2023/07/16 21:30:15;;;;;;;;;;;;;;;22.13;100.00;95786.50;10464433;28;1956;-70
2023/07/16 21:35:17;;;;;;;;;;;;;;;;;;10449031;28;1981;-69
2023/07/16 21:40:21;;;;;;;;;;;;;;;22.16;100.00;95817.88;10468193;28;5121;-70
2023/07/16 21:45:23;;;;;;;;;;;;;;;22.22;100.00;95828.25;10466832;28;2123;-70
2023/07/16 21:50:26;;;;;;;;;;;;;;;22.24;100.00;95827.91;10464013;28;2071;-68
2023/07/16 21:55:29;;;;;;;;;;;;;;;22.26;100.00;95812.69;10454269;28;1978;-70
2023/07/16 22:00:32;;;;;;;;;;;;;;;22.35;100.00;95810.63;10469488;28;1970;-69
2023/07/16 22:05:35;;;;;;;;;;;;;;;22.39;100.00;95805.25;10449100;28;1902;-69
2023/07/16 22:10:39;;;;;;;;;;;;;;;22.30;100.00;95794.44;10468472;28;1962;-69
2023/07/16 22:15:42;;;;;;;;;;;;;;;22.08;100.00;95784.81;10468976;28;2112;-72
2023/07/16 22:20:45;;;;;;;;;;;;;;;21.86;100.00;95796.25;10467344;28;2260;-71
2023/07/16 22:25:47;;;;;;;;;;;;;;;21.84;100.00;95787.59;10462077;28;1878;-72
2023/07/16 22:30:57;;;;;;;;;;;;;;;21.90;100.00;95788.97;10450098;28;1963;-70
2023/07/16 22:36:02;;;;;;;;;;;;;;;21.94;100.00;95795.31;10470215;28;1989;-71
2023/07/16 22:41:05;;;;;;;;;;;;;;;21.94;100.00;95805.47;10463339;28;5023;-70
2023/07/16 22:46:07;;;;;;;;;;;;;;;22.04;100.00;95803.06;10471520;28;1887;-70
2023/07/16 22:51:11;;;;;;;;;;;;;;;22.01;100.00;95803.75;10466151;28;1911;-68
2023/07/16 22:56:16;;;;;;;;;;;;;;;21.99;100.00;95822.44;10463540;28;1989;-69
2023/07/16 23:01:19;;;;;;;;;;;;;;;22.04;100.00;95811.25;10466819;28;1891;-68
2023/07/16 23:06:23;;;;;;;;;;;;;;;22.06;100.00;95813.66;10466579;28;1847;-68
2023/07/16 23:11:25;;;;;;;;;;;;;;;22.06;100.00;95822.66;10474075;28;1887;-69
2023/07/16 23:16:28;;;;;;;;;;;;;;;22.10;100.00;95828.28;10468363;28;2418;-67
2023/07/16 23:21:31;;;;;;;;;;;;;;;21.96;100.00;95825.88;10463996;28;1899;-68
2023/07/16 23:26:34;;;;;;;;;;;;;;;21.92;100.00;95830.44;10460519;28;1894;-67
2023/07/16 23:31:37;;;;;;;;;;;;;;;21.87;100.00;95833.41;10467841;28;1875;-68
2023/07/16 23:36:40;;;;;;;;;;;;;;;21.80;100.00;95844.13;10468121;28;1977;-67
2023/07/16 23:41:43;;;;;;;;;;;;;;;21.87;100.00;95860.78;10477644;28;5030;-68
2023/07/16 23:46:45;;;;;;;;;;;;;;;21.88;100.00;95862.38;10474516;28;1966;-68
2023/07/16 23:51:49;;;;;;;;;;;;;;;21.88;100.00;95859.63;10472922;28;1883;-67
2023/07/16 23:56:53;;;;;;;;;;;;;;;21.63;100.00;95874.47;10474062;28;1934;-67
